sensor_id;sensor_type;location;lat;lon;timestamp;pressure;altitude;pressure_sealevel;temperature;humidity
250;BME280;109;19.806;-70.704;2024-01-06T00:00:04;101719.63;;;25.62;47.95
250;BME280;109;19.806;-70.704;2024-01-06T00:02:37;101721.44;;;25.34;48.37
250;BME280;109;19.806;-70.704;2024-01-06T00:05:05;101722.66;;;25.43;48.21
250;BME280;109;19.806;-70.704;2024-01-06T00:07:31;101717.44;;;25.40;48.33
250;BME280;109;19.806;-70.704;2024-01-06T00:09:58;101718.59;;;25.50;48.37
250;BME280;109;19.806;-70.704;2024-01-06T00:12:24;101717.53;;;25.53;48.00
250;BME280;109;19.806;-70.704;2024-01-06T00:14:51;101727.44;;;25.66;47.52
250;BME280;109;19.806;-70.704;2024-01-06T00:17:17;101728.22;;;25.68;47.57
250;BME280;109;19.806;-70.704;2024-01-06T00:19:44;101728.94;;;25.29;48.78
250;BME280;109;19.806;-70.704;2024-01-06T00:22:10;101731.78;;;25.12;48.56
250;BME280;109;19.806;-70.704;2024-01-06T00:24:37;101729.31;;;25.09;48.43
250;BME280;109;19.806;-70.704;2024-01-06T00:27:03;101732.38;;;25.17;48.35
250;BME280;109;19.806;-70.704;2024-01-06T00:29:30;101738.88;;;25.43;47.92
250;BME280;109;19.806;-70.704;2024-01-06T00:31:56;101728.06;;;25.43;47.96
250;BME280;109;19.806;-70.704;2024-01-06T00:34:23;101740.53;;;25.45;48.46
250;BME280;109;19.806;-70.704;2024-01-06T00:36:49;101743.13;;;25.47;47.95
250;BME280;109;19.806;-70.704;2024-01-06T00:39:16;101732.47;;;25.01;48.06
250;BME280;109;19.806;-70.704;2024-01-06T00:41:42;101744.78;;;25.35;48.41
250;BME280;109;19.806;-70.704;2024-01-06T00:44:08;101738.78;;;25.44;48.17
250;BME280;109;19.806;-70.704;2024-01-06T00:46:35;101749.66;;;25.14;48.33
250;BME280;109;19.806;-70.704;2024-01-06T00:49:01;101748.03;;;25.26;48.51
250;BME280;109;19.806;-70.704;2024-01-06T00:51:28;101750.13;;;25.07;48.56
250;BME280;109;19.806;-70.704;2024-01-06T00:53:54;101748.53;;;24.74;48.93
250;BME280;109;19.806;-70.704;2024-01-06T00:56:21;101757.72;;;24.86;48.93
250;BME280;109;19.806;-70.704;2024-01-06T00:58:48;101758.91;;;24.96;48.42
250;BME280;109;19.806;-70.704;2024-01-06T01:01:14;101754.47;;;24.95;47.93
250;BME280;109;19.806;-70.704;2024-01-06T01:03:41;101758.50;;;25.02;48.89
250;BME280;109;19.806;-70.704;2024-01-06T01:06:07;101758.91;;;25.10;48.11
250;BME280;109;19.806;-70.704;2024-01-06T01:08:44;101762.28;;;25.14;48.10
250;BME280;109;19.806;-70.704;2024-01-06T01:11:18;101766.84;;;25.28;47.60
250;BME280;109;19.806;-70.704;2024-01-06T01:13:45;101761.28;;;25.31;47.05
250;BME280;109;19.806;-70.704;2024-01-06T01:16:18;101764.66;;;25.34;47.41
250;BME280;109;19.806;-70.704;2024-01-06T01:18:44;101761.53;;;25.40;46.87
250;BME280;109;19.806;-70.704;2024-01-06T01:21:17;101765.22;;;25.54;46.85
250;BME280;109;19.806;-70.704;2024-01-06T01:23:43;101760.84;;;25.51;46.80
250;BME280;109;19.806;-70.704;2024-01-06T01:26:16;101769.66;;;25.40;47.02
250;BME280;109;19.806;-70.704;2024-01-06T01:28:42;101759.13;;;25.50;46.75
250;BME280;109;19.806;-70.704;2024-01-06T01:31:15;101762.59;;;25.52;46.78
250;BME280;109;19.806;-70.704;2024-01-06T01:33:41;101760.84;;;25.23;46.73
250;BME280;109;19.806;-70.704;2024-01-06T01:36:14;101761.28;;;25.45;46.96
250;BME280;109;19.806;-70.704;2024-01-06T01:39:02;101764.06;;;25.43;47.29
250;BME280;109;19.806;-70.704;2024-01-06T01:41:36;101771.38;;;25.56;46.60
250;BME280;109;19.806;-70.704;2024-01-06T01:44:02;101762.03;;;25.61;46.73
250;BME280;109;19.806;-70.704;2024-01-06T01:46:36;101768.69;;;25.56;46.58
250;BME280;109;19.806;-70.704;2024-01-06T01:49:04;101770.88;;;25.49;46.94
250;BME280;109;19.806;-70.704;2024-01-06T01:51:38;101765.78;;;25.59;46.64
250;BME280;109;19.806;-70.704;2024-01-06T01:54:05;101770.31;;;25.58;46.21
250;BME280;109;19.806;-70.704;2024-01-06T01:56:40;101769.84;;;25.51;45.67
250;BME280;109;19.806;-70.704;2024-01-06T01:59:14;101770.88;;;25.49;46.58
250;BME280;109;19.806;-70.704;2024-01-06T02:01:47;101771.56;;;25.67;46.49
250;BME280;109;19.806;-70.704;2024-01-06T02:04:13;101766.94;;;25.55;46.30
250;BME280;109;19.806;-70.704;2024-01-06T02:06:47;101765.88;;;25.57;46.15
250;BME280;109;19.806;-70.704;2024-01-06T02:09:13;101767.03;;;25.39;46.76
250;BME280;109;19.806;-70.704;2024-01-06T02:11:47;101768.59;;;25.43;46.69
250;BME280;109;19.806;-70.704;2024-01-06T02:14:13;101765.31;;;25.24;47.07
250;BME280;109;19.806;-70.704;2024-01-06T02:16:46;101765.53;;;25.35;47.29
250;BME280;109;19.806;-70.704;2024-01-06T02:19:13;101773.59;;;25.63;47.15
250;BME280;109;19.806;-70.704;2024-01-06T02:21:50;101775.34;;;25.50;47.00
250;BME280;109;19.806;-70.704;2024-01-06T02:24:17;101765.81;;;25.44;46.83
250;BME280;109;19.806;-70.704;2024-01-06T02:26:57;101757.66;;;25.16;47.29
250;BME280;109;19.806;-70.704;2024-01-06T02:29:31;101761.94;;;25.34;47.14
250;BME280;109;19.806;-70.704;2024-01-06T02:31:57;101760.69;;;25.40;46.45
250;BME280;109;19.806;-70.704;2024-01-06T02:34:33;101762.13;;;25.31;46.86
250;BME280;109;19.806;-70.704;2024-01-06T02:37:19;101762.69;;;25.08;46.99
250;BME280;109;19.806;-70.704;2024-01-06T02:39:53;101761.59;;;25.10;47.00
250;BME280;109;19.806;-70.704;2024-01-06T02:42:19;101764.97;;;25.14;47.01
250;BME280;109;19.806;-70.704;2024-01-06T02:44:53;101767.50;;;25.17;47.18
250;BME280;109;19.806;-70.704;2024-01-06T02:47:19;101759.41;;;25.17;47.08
250;BME280;109;19.806;-70.704;2024-01-06T02:49:52;101751.25;;;25.33;47.00
250;BME280;109;19.806;-70.704;2024-01-06T02:52:18;101753.06;;;25.32;47.02
250;BME280;109;19.806;-70.704;2024-01-06T02:54:51;101763.66;;;25.21;47.37
250;BME280;109;19.806;-70.704;2024-01-06T02:57:18;101756.97;;;25.12;47.27
250;BME280;109;19.806;-70.704;2024-01-06T02:59:51;101754.41;;;25.54;46.76
250;BME280;109;19.806;-70.704;2024-01-06T03:02:17;101748.41;;;25.48;47.15
250;BME280;109;19.806;-70.704;2024-01-06T03:04:50;101747.84;;;25.43;46.77
250;BME280;109;19.806;-70.704;2024-01-06T03:07:16;101741.75;;;25.54;46.90
250;BME280;109;19.806;-70.704;2024-01-06T03:09:49;101749.00;;;25.39;47.00
250;BME280;109;19.806;-70.704;2024-01-06T03:12:15;101750.84;;;25.39;47.15
250;BME280;109;19.806;-70.704;2024-01-06T03:14:48;101763.00;;;25.32;46.75
250;BME280;109;19.806;-70.704;2024-01-06T03:17:14;101751.41;;;25.30;46.54
250;BME280;109;19.806;-70.704;2024-01-06T03:19:47;101746.81;;;25.32;46.35
250;BME280;109;19.806;-70.704;2024-01-06T03:22:13;101748.91;;;25.41;46.70
250;BME280;109;19.806;-70.704;2024-01-06T03:24:46;101750.66;;;25.28;47.03
250;BME280;109;19.806;-70.704;2024-01-06T03:27:19;101754.63;;;25.22;46.94
250;BME280;109;19.806;-70.704;2024-01-06T03:29:53;101748.31;;;25.36;46.85
250;BME280;109;19.806;-70.704;2024-01-06T03:32:19;101746.38;;;25.24;46.82
250;BME280;109;19.806;-70.704;2024-01-06T03:34:52;101748.13;;;25.25;46.96
250;BME280;109;19.806;-70.704;2024-01-06T03:37:38;101741.94;;;25.23;46.80
250;BME280;109;19.806;-70.704;2024-01-06T03:40:12;101741.19;;;25.21;47.01
250;BME280;109;19.806;-70.704;2024-01-06T03:42:38;101738.41;;;25.22;47.48
250;BME280;109;19.806;-70.704;2024-01-06T03:45:12;101736.66;;;25.21;47.37
250;BME280;109;19.806;-70.704;2024-01-06T03:47:38;101732.00;;;25.23;46.96
250;BME280;109;19.806;-70.704;2024-01-06T03:50:12;101735.50;;;25.25;47.03
250;BME280;109;19.806;-70.704;2024-01-06T03:52:39;101729.81;;;25.30;47.20
250;BME280;109;19.806;-70.704;2024-01-06T03:55:12;101728.53;;;25.21;47.17
250;BME280;109;19.806;-70.704;2024-01-06T03:57:38;101733.75;;;25.24;47.04
250;BME280;109;19.806;-70.704;2024-01-06T04:00:12;101722.06;;;25.38;46.61
250;BME280;109;19.806;-70.704;2024-01-06T04:02:38;101722.81;;;25.11;47.24
250;BME280;109;19.806;-70.704;2024-01-06T04:05:12;101723.59;;;25.13;46.86
250;BME280;109;19.806;-70.704;2024-01-06T04:07:38;101716.19;;;25.17;47.30
250;BME280;109;19.806;-70.704;2024-01-06T04:10:12;101723.50;;;25.01;47.36
250;BME280;109;19.806;-70.704;2024-01-06T04:12:38;101718.59;;;25.07;47.44
250;BME280;109;19.806;-70.704;2024-01-06T04:15:11;101716.47;;;25.12;47.27
250;BME280;109;19.806;-70.704;2024-01-06T04:17:39;101718.50;;;25.23;46.99
250;BME280;109;19.806;-70.704;2024-01-06T04:20:20;101713.59;;;25.30;46.70
250;BME280;109;19.806;-70.704;2024-01-06T04:22:54;101721.22;;;25.37;46.28
250;BME280;109;19.806;-70.704;2024-01-06T04:25:20;101713.41;;;25.33;46.85
250;BME280;109;19.806;-70.704;2024-01-06T04:27:54;101710.50;;;25.36;46.12
250;BME280;109;19.806;-70.704;2024-01-06T04:30:20;101717.66;;;25.23;47.02
250;BME280;109;19.806;-70.704;2024-01-06T04:32:53;101708.75;;;25.21;46.72
250;BME280;109;19.806;-70.704;2024-01-06T04:35:20;101707.03;;;25.20;46.81
250;BME280;109;19.806;-70.704;2024-01-06T04:37:53;101704.00;;;25.10;46.98
250;BME280;109;19.806;-70.704;2024-01-06T04:40:33;101709.72;;;25.05;46.84
250;BME280;109;19.806;-70.704;2024-01-06T04:42:59;101695.72;;;25.13;46.65
250;BME280;109;19.806;-70.704;2024-01-06T04:45:32;101705.09;;;25.07;46.70
250;BME280;109;19.806;-70.704;2024-01-06T04:48:06;101705.75;;;25.11;47.19
250;BME280;109;19.806;-70.704;2024-01-06T04:50:39;101701.03;;;25.14;46.80
250;BME280;109;19.806;-70.704;2024-01-06T04:53:08;101704.13;;;25.08;46.97
250;BME280;109;19.806;-70.704;2024-01-06T04:55:41;101709.22;;;24.99;47.07
250;BME280;109;19.806;-70.704;2024-01-06T04:58:07;101701.59;;;24.91;47.34
250;BME280;109;19.806;-70.704;2024-01-06T05:00:40;101697.09;;;24.92;47.03
250;BME280;109;19.806;-70.704;2024-01-06T05:03:06;101692.16;;;24.98;47.41
250;BME280;109;19.806;-70.704;2024-01-06T05:05:39;101688.22;;;25.04;47.02
250;BME280;109;19.806;-70.704;2024-01-06T05:08:05;101685.00;;;24.97;47.31
250;BME280;109;19.806;-70.704;2024-01-06T05:10:39;101680.78;;;24.93;47.34
250;BME280;109;19.806;-70.704;2024-01-06T05:13:05;101676.91;;;24.97;46.76
250;BME280;109;19.806;-70.704;2024-01-06T05:15:38;101678.75;;;24.97;47.42
250;BME280;109;19.806;-70.704;2024-01-06T05:18:04;101677.91;;;24.96;46.89
250;BME280;109;19.806;-70.704;2024-01-06T05:20:38;101680.69;;;24.95;47.01
250;BME280;109;19.806;-70.704;2024-01-06T05:23:07;101671.22;;;25.02;47.27
250;BME280;109;19.806;-70.704;2024-01-06T05:25:40;101671.50;;;24.97;46.67
250;BME280;109;19.806;-70.704;2024-01-06T05:28:06;101672.69;;;24.93;47.07
250;BME280;109;19.806;-70.704;2024-01-06T05:30:40;101665.56;;;24.92;46.85
250;BME280;109;19.806;-70.704;2024-01-06T05:33:09;101661.56;;;24.84;47.22
250;BME280;109;19.806;-70.704;2024-01-06T05:35:43;101653.97;;;24.76;47.06
250;BME280;109;19.806;-70.704;2024-01-06T05:38:31;101653.97;;;24.76;47.06
250;BME280;109;19.806;-70.704;2024-01-06T05:41:04;101644.72;;;24.80;47.09
250;BME280;109;19.806;-70.704;2024-01-06T05:43:30;101656.19;;;24.84;47.06
250;BME280;109;19.806;-70.704;2024-01-06T05:46:03;101645.28;;;24.85;47.10
250;BME280;109;19.806;-70.704;2024-01-06T05:48:29;101644.63;;;24.82;47.06
250;BME280;109;19.806;-70.704;2024-01-06T05:51:04;101639.78;;;24.87;46.82
250;BME280;109;19.806;-70.704;2024-01-06T05:53:31;101640.09;;;24.82;47.40
250;BME280;109;19.806;-70.704;2024-01-06T05:56:05;101627.34;;;24.84;46.88
250;BME280;109;19.806;-70.704;2024-01-06T05:58:32;101636.53;;;24.82;47.02
250;BME280;109;19.806;-70.704;2024-01-06T06:01:05;101630.63;;;24.75;47.27
250;BME280;109;19.806;-70.704;2024-01-06T06:03:31;101634.44;;;24.71;47.37
250;BME280;109;19.806;-70.704;2024-01-06T06:06:05;101631.56;;;24.74;47.15
250;BME280;109;19.806;-70.704;2024-01-06T06:08:31;101623.13;;;24.80;47.14
250;BME280;109;19.806;-70.704;2024-01-06T06:11:05;101617.91;;;24.77;47.20
250;BME280;109;19.806;-70.704;2024-01-06T06:13:43;101632.47;;;24.74;47.24
250;BME280;109;19.806;-70.704;2024-01-06T06:16:10;101623.31;;;24.77;46.86
250;BME280;109;19.806;-70.704;2024-01-06T06:18:46;101616.97;;;24.78;47.18
250;BME280;109;19.806;-70.704;2024-01-06T06:21:12;101617.19;;;24.73;47.51
250;BME280;109;19.806;-70.704;2024-01-06T06:23:46;101608.84;;;24.78;47.40
250;BME280;109;19.806;-70.704;2024-01-06T06:26:13;101610.88;;;24.74;47.48
250;BME280;109;19.806;-70.704;2024-01-06T06:28:46;101616.44;;;24.71;47.19
250;BME280;109;19.806;-70.704;2024-01-06T06:31:12;101607.09;;;24.63;47.02
250;BME280;109;19.806;-70.704;2024-01-06T06:33:45;101610.06;;;24.72;47.03
250;BME280;109;19.806;-70.704;2024-01-06T06:36:11;101615.47;;;24.72;47.29
250;BME280;109;19.806;-70.704;2024-01-06T06:38:51;101604.38;;;24.63;47.11
250;BME280;109;19.806;-70.704;2024-01-06T06:41:31;101596.69;;;24.57;47.45
250;BME280;109;19.806;-70.704;2024-01-06T06:43:57;101590.53;;;24.69;47.24
250;BME280;109;19.806;-70.704;2024-01-06T06:46:31;101588.69;;;24.69;46.80
250;BME280;109;19.806;-70.704;2024-01-06T06:48:57;101585.13;;;24.69;47.62
250;BME280;109;19.806;-70.704;2024-01-06T06:51:30;101581.75;;;24.65;47.19
250;BME280;109;19.806;-70.704;2024-01-06T06:53:56;101574.50;;;24.66;46.92
250;BME280;109;19.806;-70.704;2024-01-06T06:56:29;101564.09;;;24.60;47.27
250;BME280;109;19.806;-70.704;2024-01-06T06:58:55;101564.19;;;24.58;47.23
250;BME280;109;19.806;-70.704;2024-01-06T07:01:28;101567.19;;;24.54;47.46
250;BME280;109;19.806;-70.704;2024-01-06T07:03:54;101578.34;;;24.62;47.29
250;BME280;109;19.806;-70.704;2024-01-06T07:06:29;101582.22;;;24.72;46.82
250;BME280;109;19.806;-70.704;2024-01-06T07:08:56;101575.28;;;24.68;47.00
250;BME280;109;19.806;-70.704;2024-01-06T07:11:30;101566.78;;;24.60;47.06
250;BME280;109;19.806;-70.704;2024-01-06T07:13:56;101568.34;;;24.64;47.29
250;BME280;109;19.806;-70.704;2024-01-06T07:16:30;101571.81;;;24.52;47.24
250;BME280;109;19.806;-70.704;2024-01-06T07:18:56;101576.81;;;24.58;47.05
250;BME280;109;19.806;-70.704;2024-01-06T07:21:29;101582.19;;;24.58;46.69
250;BME280;109;19.806;-70.704;2024-01-06T07:23:55;101576.81;;;24.58;46.59
250;BME280;109;19.806;-70.704;2024-01-06T07:26:28;101577.56;;;24.45;47.16
250;BME280;109;19.806;-70.704;2024-01-06T07:28:54;101578.16;;;24.51;46.84
250;BME280;109;19.806;-70.704;2024-01-06T07:31:28;101584.53;;;24.50;47.01
250;BME280;109;19.806;-70.704;2024-01-06T07:33:54;101581.13;;;24.46;46.95
250;BME280;109;19.806;-70.704;2024-01-06T07:36:34;101584.63;;;24.48;47.32
250;BME280;109;19.806;-70.704;2024-01-06T07:39:17;101578.34;;;24.47;47.04
250;BME280;109;19.806;-70.704;2024-01-06T07:41:43;101575.56;;;24.49;47.09
250;BME280;109;19.806;-70.704;2024-01-06T07:44:17;101577.38;;;24.34;47.16
250;BME280;109;19.806;-70.704;2024-01-06T07:46:55;101564.47;;;24.39;47.05
250;BME280;109;19.806;-70.704;2024-01-06T07:49:21;101577.69;;;24.44;47.46
250;BME280;109;19.806;-70.704;2024-01-06T07:52:02;101569.00;;;24.39;47.70
250;BME280;109;19.806;-70.704;2024-01-06T07:54:35;101571.63;;;24.40;47.30
250;BME280;109;19.806;-70.704;2024-01-06T07:57:01;101570.75;;;24.40;47.59
250;BME280;109;19.806;-70.704;2024-01-06T07:59:35;101570.94;;;24.37;47.25
250;BME280;109;19.806;-70.704;2024-01-06T08:02:04;101563.53;;;24.40;47.45
250;BME280;109;19.806;-70.704;2024-01-06T08:04:38;101565.16;;;24.43;47.04
250;BME280;109;19.806;-70.704;2024-01-06T08:07:04;101575.47;;;24.36;47.19
250;BME280;109;19.806;-70.704;2024-01-06T08:09:37;101570.84;;;24.38;47.79
250;BME280;109;19.806;-70.704;2024-01-06T08:12:03;101559.97;;;24.40;47.56
250;BME280;109;19.806;-70.704;2024-01-06T08:14:37;101563.72;;;24.37;47.45
250;BME280;109;19.806;-70.704;2024-01-06T08:17:03;101558.88;;;24.28;47.26
250;BME280;109;19.806;-70.704;2024-01-06T08:19:37;101557.72;;;24.32;47.97
250;BME280;109;19.806;-70.704;2024-01-06T08:22:03;101557.06;;;24.29;47.77
250;BME280;109;19.806;-70.704;2024-01-06T08:24:37;101560.03;;;24.38;47.60
250;BME280;109;19.806;-70.704;2024-01-06T08:27:04;101564.94;;;24.32;47.27
250;BME280;109;19.806;-70.704;2024-01-06T08:29:37;101566.75;;;24.17;47.52
250;BME280;109;19.806;-70.704;2024-01-06T08:32:04;101560.03;;;24.38;47.38
250;BME280;109;19.806;-70.704;2024-01-06T08:34:37;101567.38;;;24.51;47.10
250;BME280;109;19.806;-70.704;2024-01-06T08:37:12;101560.25;;;24.50;47.30
250;BME280;109;19.806;-70.704;2024-01-06T08:39:46;101560.03;;;24.38;47.11
250;BME280;109;19.806;-70.704;2024-01-06T08:42:26;101559.78;;;24.43;47.31
250;BME280;109;19.806;-70.704;2024-01-06T08:44:53;101560.13;;;24.37;47.49
250;BME280;109;19.806;-70.704;2024-01-06T08:47:26;101560.22;;;24.35;47.34
250;BME280;109;19.806;-70.704;2024-01-06T08:49:52;101561.69;;;24.41;47.37
250;BME280;109;19.806;-70.704;2024-01-06T08:52:25;101561.72;;;24.25;47.88
250;BME280;109;19.806;-70.704;2024-01-06T08:54:51;101560.56;;;24.15;48.03
250;BME280;109;19.806;-70.704;2024-01-06T08:57:24;101564.41;;;24.11;48.11
250;BME280;109;19.806;-70.704;2024-01-06T08:59:50;101558.72;;;24.01;48.23
250;BME280;109;19.806;-70.704;2024-01-06T09:02:23;101572.09;;;24.03;48.37
250;BME280;109;19.806;-70.704;2024-01-06T09:04:49;101570.19;;;24.05;48.03
250;BME280;109;19.806;-70.704;2024-01-06T09:07:22;101552.94;;;24.07;48.17
250;BME280;109;19.806;-70.704;2024-01-06T09:09:49;101563.22;;;24.01;48.25
250;BME280;109;19.806;-70.704;2024-01-06T09:12:23;101556.56;;;23.92;48.50
250;BME280;109;19.806;-70.704;2024-01-06T09:14:49;101558.59;;;23.89;48.50
250;BME280;109;19.806;-70.704;2024-01-06T09:17:26;101559.81;;;23.83;48.50
250;BME280;109;19.806;-70.704;2024-01-06T09:19:53;101550.94;;;23.81;48.59
250;BME280;109;19.806;-70.704;2024-01-06T09:22:26;101553.44;;;23.84;48.97
250;BME280;109;19.806;-70.704;2024-01-06T09:25:00;101557.41;;;23.93;48.63
250;BME280;109;19.806;-70.704;2024-01-06T09:27:34;101551.84;;;23.96;48.63
250;BME280;109;19.806;-70.704;2024-01-06T09:30:00;101547.72;;;23.90;48.34
250;BME280;109;19.806;-70.704;2024-01-06T09:32:34;101548.38;;;23.94;48.36
250;BME280;109;19.806;-70.704;2024-01-06T09:35:00;101552.44;;;24.01;48.22
250;BME280;109;19.806;-70.704;2024-01-06T09:37:33;101548.63;;;24.05;48.24
250;BME280;109;19.806;-70.704;2024-01-06T09:40:23;101552.44;;;24.01;48.15
250;BME280;109;19.806;-70.704;2024-01-06T09:42:56;101549.66;;;24.02;48.04
250;BME280;109;19.806;-70.704;2024-01-06T09:45:22;101555.63;;;24.07;47.80
250;BME280;109;19.806;-70.704;2024-01-06T09:47:58;101549.97;;;24.12;48.07
250;BME280;109;19.806;-70.704;2024-01-06T09:50:25;101549.78;;;24.15;47.89
250;BME280;109;19.806;-70.704;2024-01-06T09:52:59;101546.31;;;24.13;47.96
250;BME280;109;19.806;-70.704;2024-01-06T09:55:38;101562.56;;;24.11;48.16
250;BME280;109;19.806;-70.704;2024-01-06T09:58:05;101557.66;;;24.04;48.13
250;BME280;109;19.806;-70.704;2024-01-06T10:00:39;101558.72;;;24.01;47.97
250;BME280;109;19.806;-70.704;2024-01-06T10:03:05;101552.84;;;24.09;48.13
250;BME280;109;19.806;-70.704;2024-01-06T10:05:48;101568.94;;;24.10;47.93
250;BME280;109;19.806;-70.704;2024-01-06T10:08:25;101564.09;;;24.01;47.73
250;BME280;109;19.806;-70.704;2024-01-06T10:11:02;101565.72;;;23.90;48.38
250;BME280;109;19.806;-70.704;2024-01-06T10:13:28;101562.72;;;23.94;48.08
250;BME280;109;19.806;-70.704;2024-01-06T10:16:02;101574.75;;;23.89;48.36
250;BME280;109;19.806;-70.704;2024-01-06T10:18:29;101583.25;;;23.97;48.32
250;BME280;109;19.806;-70.704;2024-01-06T10:21:05;101581.09;;;23.88;48.45
250;BME280;109;19.806;-70.704;2024-01-06T10:23:39;101577.78;;;23.83;48.56
250;BME280;109;19.806;-70.704;2024-01-06T10:26:05;101580.84;;;23.92;48.46
250;BME280;109;19.806;-70.704;2024-01-06T10:28:38;101589.19;;;23.88;48.37
250;BME280;109;19.806;-70.704;2024-01-06T10:33:52;101600.47;;;23.94;48.01
250;BME280;109;19.806;-70.704;2024-01-06T10:36:41;101600.13;;;23.85;48.06
250;BME280;109;19.806;-70.704;2024-01-06T10:39:14;101599.09;;;23.87;47.78
250;BME280;109;19.806;-70.704;2024-01-06T10:41:44;101599.72;;;23.92;47.86
250;BME280;109;19.806;-70.704;2024-01-06T10:44:26;101602.41;;;23.92;48.19
250;BME280;109;19.806;-70.704;2024-01-06T10:47:00;101606.72;;;23.95;48.26
250;BME280;109;19.806;-70.704;2024-01-06T10:49:30;101613.19;;;23.92;48.43
250;BME280;109;19.806;-70.704;2024-01-06T10:51:58;101610.19;;;23.97;48.31
250;BME280;109;19.806;-70.704;2024-01-06T10:54:27;101604.81;;;23.97;48.49
250;BME280;109;19.806;-70.704;2024-01-06T10:56:55;101608.53;;;23.94;48.35
250;BME280;109;19.806;-70.704;2024-01-06T10:59:23;101617.72;;;23.92;48.22
250;BME280;109;19.806;-70.704;2024-01-06T11:01:53;101621.34;;;23.91;48.10
250;BME280;109;19.806;-70.704;2024-01-06T11:04:20;101623.84;;;23.94;48.31
250;BME280;109;19.806;-70.704;2024-01-06T11:06:49;101629.66;;;24.02;48.26
250;BME280;109;19.806;-70.704;2024-01-06T11:09:22;101628.88;;;24.00;48.01
250;BME280;109;19.806;-70.704;2024-01-06T11:11:51;101626.19;;;24.00;48.12
250;BME280;109;19.806;-70.704;2024-01-06T11:14:25;101626.53;;;23.94;48.15
250;BME280;109;19.806;-70.704;2024-01-06T11:16:59;101629.00;;;23.83;48.43
250;BME280;109;19.806;-70.704;2024-01-06T11:22:29;101643.94;;;23.72;48.73
250;BME280;109;19.806;-70.704;2024-01-06T11:25:05;101647.25;;;23.46;49.04
250;BME280;109;19.806;-70.704;2024-01-06T11:27:32;101648.72;;;23.67;48.71
250;BME280;109;19.806;-70.704;2024-01-06T11:30:00;101650.75;;;23.48;48.70
250;BME280;109;19.806;-70.704;2024-01-06T11:32:30;101649.44;;;23.55;48.85
250;BME280;109;19.806;-70.704;2024-01-06T11:35:11;101645.88;;;23.55;48.96
250;BME280;109;19.806;-70.704;2024-01-06T11:43:06;101664.28;;;23.47;49.02
250;BME280;109;19.806;-70.704;2024-01-06T11:45:34;101671.75;;;23.41;49.15
250;BME280;109;19.806;-70.704;2024-01-06T11:48:05;101679.13;;;23.54;48.70
250;BME280;109;19.806;-70.704;2024-01-06T11:50:36;101681.59;;;23.58;48.60
250;BME280;109;19.806;-70.704;2024-01-06T11:53:05;101683.31;;;23.59;48.85
250;BME280;109;19.806;-70.704;2024-01-06T11:55:32;101683.31;;;23.59;48.84
250;BME280;109;19.806;-70.704;2024-01-06T11:57:59;101688.47;;;23.48;48.79
250;BME280;109;19.806;-70.704;2024-01-06T12:00:29;101688.78;;;23.42;48.70
250;BME280;109;19.806;-70.704;2024-01-06T12:02:57;101690.63;;;23.57;48.57
250;BME280;109;19.806;-70.704;2024-01-06T12:05:24;101700.63;;;23.71;48.29
250;BME280;109;19.806;-70.704;2024-01-06T12:07:56;101696.19;;;23.70;48.42
250;BME280;109;19.806;-70.704;2024-01-06T12:10:24;101690.81;;;23.86;48.02
250;BME280;109;19.806;-70.704;2024-01-06T12:13:01;101688.19;;;24.00;48.03
250;BME280;109;19.806;-70.704;2024-01-06T12:15:29;101693.41;;;24.03;47.88
250;BME280;109;19.806;-70.704;2024-01-06T12:17:56;101691.94;;;23.97;48.01
250;BME280;109;19.806;-70.704;2024-01-06T12:20:24;101692.25;;;24.07;47.90
250;BME280;109;19.806;-70.704;2024-01-06T12:22:56;101697.81;;;24.20;47.59
250;BME280;109;19.806;-70.704;2024-01-06T12:25:23;101697.63;;;24.38;47.18
250;BME280;109;19.806;-70.704;2024-01-06T12:27:52;101694.41;;;24.32;47.04
250;BME280;109;19.806;-70.704;2024-01-06T12:30:20;101700.78;;;24.31;47.13
250;BME280;109;19.806;-70.704;2024-01-06T12:32:49;101699.09;;;24.44;47.04
250;BME280;109;19.806;-70.704;2024-01-06T12:35:16;101702.28;;;24.51;46.80
250;BME280;109;19.806;-70.704;2024-01-06T12:37:43;101701.44;;;24.64;46.77
250;BME280;109;19.806;-70.704;2024-01-06T12:40:13;101701.59;;;24.77;46.42
250;BME280;109;19.806;-70.704;2024-01-06T12:42:39;101699.78;;;24.92;46.08
250;BME280;109;19.806;-70.704;2024-01-06T12:45:06;101710.66;;;24.90;46.50
250;BME280;109;19.806;-70.704;2024-01-06T12:47:33;101718.09;;;25.01;46.48
250;BME280;109;19.806;-70.704;2024-01-06T12:50:00;101714.94;;;25.08;45.96
250;BME280;109;19.806;-70.704;2024-01-06T12:52:26;101709.44;;;25.24;46.58
250;BME280;109;19.806;-70.704;2024-01-06T12:54:53;101708.97;;;25.32;45.73
250;BME280;109;19.806;-70.704;2024-01-06T12:57:19;101705.97;;;25.36;45.50
250;BME280;109;19.806;-70.704;2024-01-06T12:59:46;101723.69;;;25.12;45.43
250;BME280;109;19.806;-70.704;2024-01-06T13:02:12;101722.47;;;25.32;44.96
250;BME280;109;19.806;-70.704;2024-01-06T13:04:39;101725.88;;;25.35;45.13
250;BME280;109;19.806;-70.704;2024-01-06T13:07:05;101724.94;;;25.49;45.19
250;BME280;109;19.806;-70.704;2024-01-06T13:09:32;101719.44;;;25.50;44.89
250;BME280;109;19.806;-70.704;2024-01-06T13:11:59;101730.75;;;25.71;44.79
250;BME280;109;19.806;-70.704;2024-01-06T13:14:29;101734.50;;;25.69;44.86
250;BME280;109;19.806;-70.704;2024-01-06T13:16:56;101729.78;;;25.58;45.09
250;BME280;109;19.806;-70.704;2024-01-06T13:19:23;101736.44;;;25.81;44.58
250;BME280;109;19.806;-70.704;2024-01-06T13:21:50;101738.88;;;25.71;44.50
250;BME280;109;19.806;-70.704;2024-01-06T13:24:16;101743.44;;;25.98;44.55
250;BME280;109;19.806;-70.704;2024-01-06T13:26:42;101736.44;;;26.08;43.96
250;BME280;109;19.806;-70.704;2024-01-06T13:29:09;101738.81;;;26.00;44.12
250;BME280;109;19.806;-70.704;2024-01-06T13:31:35;101740.78;;;25.83;44.75
250;BME280;109;19.806;-70.704;2024-01-06T13:34:03;101736.13;;;25.85;44.31
250;BME280;109;19.806;-70.704;2024-01-06T13:36:29;101746.28;;;25.82;44.19